1897 NOT_NAMED (1897357S17121)


IBTrACS version v04r00. Visit IBTrACS website for data access.
Please direct all questions to the IBTrACS Q and A forum

Storm track - Intensity - Wind Radii - Intensity Data - Source Data - All data

Summary Information

Storm ID 1897357S17121
Start Dec 22 12Z
Landfall Dec 26 06Z, Dec 30 09Z, Dec 30 21Z
End Jan 1 00Z
ATCF IDs
Track status Best track data.

Storm track plot

Map of storm track

Intensity plots

No Intensity information for this storm


Radial wind information

No radial wind information for this storm


Position and Intensity Table

BASIN ISO_TIME_________ NATURE LAT LON
degrees north degrees east
SI 1897-12-22 12:00:00 NR -17.40 120.90
SI 15:00:00 NR -17.43 121.00
SI 18:00:00 NR -17.47 121.05
SI 21:00:00 NR -17.56 121.00
SI 1897-12-23 00:00:00 NR -17.70 120.80
SI 03:00:00 NR -17.91 120.42
SI 06:00:00 NR -18.16 119.91
SI 09:00:00 NR -18.40 119.35
SI 12:00:00 NR -18.60 118.80
SI 15:00:00 NR -18.71 118.36
SI 18:00:00 NR -18.77 117.95
SI 21:00:00 NR -18.80 117.56
SI 1897-12-24 00:00:00 NR -18.80 117.20
SI 03:00:00 NR -18.77 116.87
SI 06:00:00 NR -18.73 116.55
SI 09:00:00 NR -18.69 116.23
SI 12:00:00 NR -18.70 115.90
SI 15:00:00 NR -18.77 115.47
SI 18:00:00 NR -18.88 115.02
SI 21:00:00 NR -19.02 114.61
SI 1897-12-25 00:00:00 NR -19.20 114.30
SI 03:00:00 NR -19.39 114.13
SI 06:00:00 NR -19.60 114.06
SI 09:00:00 NR -19.84 114.06
SI 12:00:00 NR -20.10 114.10
SI 15:00:00 NR -20.35 114.07
SI 18:00:00 NR -20.62 114.09
SI 21:00:00 NR -20.90 114.19
SI 1897-12-26 00:00:00 NR -21.20 114.40
SI 03:00:00 NR -21.52 114.76
SI 06:00:00 NR -21.84 115.24
SI 09:00:00 NR -22.17 115.77
SI 12:00:00 NR -22.50 116.30
SI 15:00:00 NR -22.81 116.76
SI 18:00:00 NR -23.11 117.21
SI 21:00:00 NR -23.41 117.65
SI 1897-12-27 00:00:00 NR -23.70 118.10
SI 03:00:00 NR -23.98 118.56
SI 06:00:00 NR -24.26 119.02
SI 09:00:00 NR -24.53 119.46
SI 12:00:00 NR -24.80 119.90
SI 15:00:00 NR -25.05 120.27
SI 18:00:00 NR -25.30 120.63
SI 21:00:00 NR -25.58 121.02
SI 1897-12-28 00:00:00 NR -25.90 121.50
SI 03:00:00 NR -26.28 122.11
SI 06:00:00 NR -26.71 122.81
SI 09:00:00 NR -27.15 123.55
SI 12:00:00 NR -27.60 124.30
SI 15:00:00 NR -28.02 125.00
SI 18:00:00 NR -28.44 125.70
SI 21:00:00 NR -28.87 126.40
SI 1897-12-29 00:00:00 NR -29.30 127.10
SI 03:00:00 NR -29.77 127.82
SI 06:00:00 NR -30.24 128.54
SI 09:00:00 NR -30.69 129.24
SI 12:00:00 NR -31.10 129.90
SI 15:00:00 NR -31.36 130.42
SI 18:00:00 NR -31.60 130.91
SI 21:00:00 NR -31.89 131.47
SI 1897-12-30 00:00:00 NR -32.30 132.20
SI 03:00:00 NR -32.92 133.24
SI 06:00:00 NR -33.66 134.46
SP 09:00:00 NR -34.47 135.78
SP 12:00:00 NR -35.30 137.10
SP 15:00:00 NR -36.14 138.28
SP 18:00:00 NR -36.98 139.45
SP 21:00:00 NR -37.75 140.62
SP 1897-12-31 00:00:00 NR -38.40 141.80
SP 03:00:00 NR -38.87 143.02
SP 06:00:00 NR -39.21 144.24
SP 09:00:00 NR -39.45 145.44
SP 12:00:00 NR -39.60 146.60
SP 15:00:00 NR -39.70 147.72
SP 18:00:00 NR -39.76 148.80
SP 21:00:00 NR -39.79 149.86
SP 1898-01-01 00:00:00 NR -39.80 150.90

Source Information

Agency Information
USA
TOKYO
CMA
HKO
NEWDELHI
REUNION
BOM
NADI
WELLINGTON
DS824
TD9636 cons_worldwide_trop_cyclone_18710101-19891231-006:Line=29
TD9635
NEUMANN
MLC

All available IBTrACS Data

SEASON BASIN SUBBASIN ISO_TIME_________ NATURE LAT LON DIST2LAND LANDFALL IFLAG USA SSHS TD9636 LAT TD9636 LON TD9636 STAGE STORM SPEED STORM DIR
Year degrees north degrees east km km 1 degrees north degrees east kts degrees
1898 SI WA 1897-12-22 12:00:00 NR -17.40 120.90 129 118 __________O___ -1 -17.40 120.90 7 2 106
1898 SI WA 15:00:00 NR -17.43 121.00 118 117 __________P___ -1 -17.43 121.00 7 2 117
1898 SI WA 18:00:00 NR -17.47 121.05 117 106 __________P___ -1 -17.47 121.05 7 1 186
1898 SI WA 21:00:00 NR -17.56 121.00 116 116 __________P___ -1 -17.56 121.00 7 3 226
1898 SI WA 1897-12-23 00:00:00 NR -17.70 120.80 138 138 __________O___ -1 -17.70 120.80 7 7 237
1898 SI WA 03:00:00 NR -17.91 120.42 158 158 __________P___ -1 -17.91 120.42 7 10 241
1898 SI WA 06:00:00 NR -18.16 119.91 187 181 __________P___ -1 -18.16 119.91 7 11 244
1898 SI WA 09:00:00 NR -18.40 119.35 186 169 __________P___ -1 -18.40 119.35 7 11 247
1898 SI WA 12:00:00 NR -18.60 118.80 170 165 __________O___ -1 -18.60 118.80 7 10 252
1898 SI WA 15:00:00 NR -18.71 118.36 172 172 __________P___ -1 -18.71 118.36 7 8 258
1898 SI WA 18:00:00 NR -18.77 117.95 180 180 __________P___ -1 -18.77 117.95 7 8 263
1898 SI WA 21:00:00 NR -18.80 117.56 186 186 __________P___ -1 -18.80 117.56 7 7 268
1898 SI WA 1897-12-24 00:00:00 NR -18.80 117.20 202 201 __________O___ -1 -18.80 117.20 7 7 272
1898 SI WA 03:00:00 NR -18.77 116.87 201 201 __________P___ -1 -18.77 116.87 7 6 277
1898 SI WA 06:00:00 NR -18.73 116.55 213 213 __________P___ -1 -18.73 116.55 7 6 277
1898 SI WA 09:00:00 NR -18.69 116.23 218 218 __________P___ -1 -18.69 116.23 7 6 272
1898 SI WA 12:00:00 NR -18.70 115.90 228 228 __________O___ -1 -18.70 115.90 7 7 264
1898 SI WA 15:00:00 NR -18.77 115.47 237 237 __________P___ -1 -18.77 115.47 7 9 258
1898 SI WA 18:00:00 NR -18.88 115.02 256 256 __________P___ -1 -18.88 115.02 7 8 252
1898 SI WA 21:00:00 NR -19.02 114.61 270 261 __________P___ -1 -19.02 114.61 7 8 244
1898 SI WA 1897-12-25 00:00:00 NR -19.20 114.30 270 267 __________O___ -1 -19.20 114.30 7 6 231
1898 SI WA 03:00:00 NR -19.39 114.13 267 249 __________P___ -1 -19.39 114.13 7 5 209
1898 SI WA 06:00:00 NR -19.60 114.06 249 228 __________P___ -1 -19.60 114.06 7 5 188
1898 SI WA 09:00:00 NR -19.84 114.06 228 197 __________P___ -1 -19.84 114.06 7 5 175
1898 SI WA 12:00:00 NR -20.10 114.10 197 175 __________O___ -1 -20.10 114.10 7 5 178
1898 SI WA 15:00:00 NR -20.35 114.07 164 143 __________P___ -1 -20.35 114.07 7 5 0
1898 SI WA 18:00:00 NR -20.62 114.09 143 108 __________P___ -1 -20.62 114.09 7 6 169
1898 SI WA 21:00:00 NR -20.90 114.19 108 70 __________P___ -1 -20.90 114.19 7 7 154
1898 SI WA 1897-12-26 00:00:00 NR -21.20 114.40 70 30 __________O___ -1 -21.20 114.40 7 8 139
1898 SI WA 03:00:00 NR -21.52 114.76 24 0 __________P___ -1 -21.52 114.76 7 10 130
1898 SI WA 06:00:00 NR -21.84 115.24 0 0 __________P___ -1 -21.84 115.24 7 11 125
1898 SI WA 09:00:00 NR -22.17 115.77 0 0 __________P___ -1 -22.17 115.77 7 12 124
1898 SI WA 12:00:00 NR -22.50 116.30 0 0 __________O___ -1 -22.50 116.30 7 11 125
1898 SI WA 15:00:00 NR -22.81 116.76 0 0 __________P___ -1 -22.81 116.76 7 10 126
1898 SI WA 18:00:00 NR -23.11 117.21 0 0 __________P___ -1 -23.11 117.21 7 10 126
1898 SI WA 21:00:00 NR -23.41 117.65 0 0 __________P___ -1 -23.41 117.65 7 10 126
1898 SI WA 1897-12-27 00:00:00 NR -23.70 118.10 0 0 __________O___ -1 -23.70 118.10 7 10 125
1898 SI WA 03:00:00 NR -23.98 118.56 0 0 __________P___ -1 -23.98 118.56 7 10 124
1898 SI WA 06:00:00 NR -24.26 119.02 0 0 __________P___ -1 -24.26 119.02 7 10 124
1898 SI WA 09:00:00 NR -24.53 119.46 0 0 __________P___ -1 -24.53 119.46 7 10 124
1898 SI WA 12:00:00 NR -24.80 119.90 0 0 __________O___ -1 -24.80 119.90 7 9 125
1898 SI WA 15:00:00 NR -25.05 120.27 0 0 __________P___ -1 -25.05 120.27 7 8 127
1898 SI WA 18:00:00 NR -25.30 120.63 0 0 __________P___ -1 -25.30 120.63 7 9 128
1898 SI WA 21:00:00 NR -25.58 121.02 0 0 __________P___ -1 -25.58 121.02 7 10 127
1898 SI WA 1897-12-28 00:00:00 NR -25.90 121.50 0 0 __________O___ -1 -25.90 121.50 7 12 126
1898 SI WA 03:00:00 NR -26.28 122.11 0 0 __________P___ -1 -26.28 122.11 7 14 124
1898 SI WA 06:00:00 NR -26.71 122.81 0 0 __________P___ -1 -26.71 122.81 7 16 124
1898 SI WA 09:00:00 NR -27.15 123.55 0 0 __________P___ -1 -27.15 123.55 7 16 124
1898 SI WA 12:00:00 NR -27.60 124.30 0 0 __________O___ -1 -27.60 124.30 7 16 124
1898 SI WA 15:00:00 NR -28.02 125.00 0 0 __________P___ -1 -28.02 125.00 7 15 124
1898 SI WA 18:00:00 NR -28.44 125.70 0 0 __________P___ -1 -28.44 125.70 7 15 125
1898 SI WA 21:00:00 NR -28.87 126.40 0 0 __________P___ -1 -28.87 126.40 7 15 125
1898 SI WA 1897-12-29 00:00:00 NR -29.30 127.10 0 0 __________O___ -1 -29.30 127.10 7 15 126
1898 SI WA 03:00:00 NR -29.77 127.82 0 0 __________P___ -1 -29.77 127.82 7 16 127
1898 SI WA 06:00:00 NR -30.24 128.54 0 0 __________P___ -1 -30.24 128.54 7 15 127
1898 SI WA 09:00:00 NR -30.69 129.24 0 0 __________P___ -1 -30.69 129.24 7 15 126
1898 SI WA 12:00:00 NR -31.10 129.90 0 0 __________O___ -1 -31.10 129.90 7 12 124
1898 SI WA 15:00:00 NR -31.36 130.42 0 0 __________P___ -1 -31.36 130.42 7 10 120
1898 SI WA 18:00:00 NR -31.60 130.91 9 9 __________P___ -1 -31.60 130.91 7 10 120
1898 SI WA 21:00:00 NR -31.89 131.47 33 24 __________P___ -1 -31.89 131.47 7 13 123
1898 SI WA 1897-12-30 00:00:00 NR -32.30 132.20 33 33 __________O___ -1 -32.30 132.20 7 18 125
1898 SI WA 03:00:00 NR -32.92 133.24 78 29 __________P___ -1 -32.92 133.24 7 23 126
1898 SI WA 06:00:00 NR -33.66 134.46 29 0 __________P___ -1 -33.66 134.46 7 26 126
1898 SP EA 09:00:00 NR -34.47 135.78 0 0 __________P___ -1 -34.47 135.78 7 27 127
1898 SP EA 12:00:00 NR -35.30 137.10 11 0 __________O___ -1 -35.30 137.10 7 26 129
1898 SP EA 15:00:00 NR -36.14 138.28 34 28 __________P___ -1 -36.14 138.28 7 25 131
1898 SP EA 18:00:00 NR -36.98 139.45 17 0 __________P___ -1 -36.98 139.45 7 25 131
1898 SP EA 21:00:00 NR -37.75 140.62 0 0 __________P___ -1 -37.75 140.62 7 23 127
1898 SP EA 1897-12-31 00:00:00 NR -38.40 141.80 11 11 __________O___ -1 -38.40 141.80 7 22 121
1898 SP EA 03:00:00 NR -38.87 143.02 28 11 __________P___ -1 -38.87 143.02 7 21 113
1898 SP EA 06:00:00 NR -39.21 144.24 61 61 __________P___ -1 -39.21 144.24 7 20 107
1898 SP EA 09:00:00 NR -39.45 145.44 70 47 __________P___ -1 -39.45 145.44 7 19 102
1898 SP EA 12:00:00 NR -39.60 146.60 58 58 __________O___ -1 -39.60 146.60 7 18 98
1898 SP EA 15:00:00 NR -39.70 147.72 123 119 __________P___ -1 -39.70 147.72 7 17 95
1898 SP EA 18:00:00 NR -39.76 148.80 126 126 __________P___ -1 -39.76 148.80 7 16 93
1898 SP EA 21:00:00 NR -39.79 149.86 184 184 __________P___ -1 -39.79 149.86 7 16 91
1898 SP EA 1898-01-01 00:00:00 NR -39.80 150.90 249 __________O___ -1 -39.80 150.90 7 16 91